This is the latest recevied weather packets stored in our database for station/object KC8YYF. If no packets are shown the sender has not sent any weather packets the latest 10 day(s).
| Time | Temp. | Humidity | Pressure | Rain* | Wind** | Luminosity | Snow |
|---|---|---|---|---|---|---|---|
| 1777431316 | 15° C | 87% | 1014.8 hPa | 0 mm | - | 0 W/m² | - |
| 1777429795 | 15.56° C | 83% | 1014.4 hPa | 0 mm | - | 0 W/m² | - |
| 1777429187 | 16.11° C | 82% | 1014.7 hPa | 0 mm | - | 0 W/m² | - |
| 1777427061 | 16.11° C | 84% | 1014.8 hPa | 0 mm | - | 0 W/m² | - |
| 1777426151 | 16.11° C | 85% | 1014.7 hPa | 0 mm | - | 0 W/m² | - |
| 1777425846 | 16.11° C | 84% | 1014.9 hPa | 0 mm | - | 0 W/m² | - |
| 1777425542 | 16.11° C | 85% | 1014.7 hPa | 0 mm | - | 0 W/m² | - |
| 1777424934 | 16.11° C | 85% | 1014.5 hPa | 0 mm | - | 0 W/m² | - |
| 1777424630 | 16.11° C | 84% | 1014.3 hPa | 0 mm | - | 0 W/m² | - |
| 1777423718 | 16.67° C | 84% | 1014.2 hPa | 0 mm | - | 0 W/m² | - |
| 1777423414 | 16.67° C | 82% | 1014.2 hPa | 0 mm | - | 0 W/m² | - |
| 1777423113 | 17.22° C | 82% | 1013.9 hPa | 0 mm | - | 0 W/m² | - |
| 1777422809 | 17.22° C | 82% | 1013.9 hPa | 0 mm | - | 0 W/m² | - |
| 1777420988 | 19.44° C | 73% | 1013.5 hPa | 0 mm | - | 2 W/m² | - |
| 1777413999 | 23.33° C | 56% | 1013.1 hPa | 0 mm | - | 39 W/m² | - |
| 1777413087 | 23.89° C | 56% | 1013.6 hPa | 0 mm | - | 280 W/m² | - |
| 1777412787 | 24.44° C | 57% | 1013.5 hPa | 0 mm | - | 306 W/m² | - |
| 1777410963 | 22.78° C | 58% | 1013.1 hPa | 0 mm | - | 391 W/m² | - |
| 1777410664 | 22.22° C | 57% | 1013.4 hPa | 0 mm | - | 89 W/m² | - |
| 1777410357 | 22.78° C | 56% | 1013.5 hPa | 0 mm | - | 110 W/m² | - |
| 1777408531 | 23.33° C | 59% | 1013.2 hPa | 0 mm | - | 170 W/m² | - |
| 1777408230 | 23.89° C | 58% | 1013.2 hPa | 0 mm | - | 117 W/m² | - |
| 1777407926 | 23.33° C | 57% | 1013.4 hPa | 0 mm | - | 88 W/m² | - |
| 1777407624 | 23.33° C | 57% | 1013.5 hPa | 0 mm | - | 60 W/m² | - |
| 1777407323 | 23.33° C | 58% | 1013.4 hPa | 0 mm | - | 76 W/m² | - |
* Rain latest hour (hover to see other rain measurements)
** Current wind speed in m/s (hover to see current wind gust speed)